sensor_id;sensor_type;location;lat;lon;timestamp;P1;durP1;ratioP1;P2;durP2;ratioP2
38465;SDS011;24244;51.950;5.902;2023-04-25T00:00:15;3.33;;;1.30;;
38465;SDS011;24244;51.950;5.902;2023-04-25T00:02:42;5.10;;;1.38;;
38465;SDS011;24244;51.950;5.902;2023-04-25T00:05:09;2.65;;;0.95;;
38465;SDS011;24244;51.950;5.902;2023-04-25T00:07:38;2.97;;;0.98;;
38465;SDS011;24244;51.950;5.902;2023-04-25T00:10:06;2.97;;;0.73;;
38465;SDS011;24244;51.950;5.902;2023-04-25T00:12:33;4.60;;;0.95;;
38465;SDS011;24244;51.950;5.902;2023-04-25T00:15:00;2.42;;;0.90;;
38465;SDS011;24244;51.950;5.902;2023-04-25T00:17:27;2.17;;;0.90;;
38465;SDS011;24244;51.950;5.902;2023-04-25T00:19:54;2.38;;;0.90;;
38465;SDS011;24244;51.950;5.902;2023-04-25T00:22:22;2.45;;;0.82;;
38465;SDS011;24244;51.950;5.902;2023-04-25T00:24:50;3.72;;;0.95;;
38465;SDS011;24244;51.950;5.902;2023-04-25T00:27:16;4.03;;;1.08;;
38465;SDS011;24244;51.950;5.902;2023-04-25T00:29:45;2.85;;;0.80;;
38465;SDS011;24244;51.950;5.902;2023-04-25T00:32:11;2.42;;;1.00;;
38465;SDS011;24244;51.950;5.902;2023-04-25T00:34:38;4.88;;;1.50;;
38465;SDS011;24244;51.950;5.902;2023-04-25T00:37:05;3.40;;;1.05;;
38465;SDS011;24244;51.950;5.902;2023-04-25T00:39:32;5.20;;;0.98;;
38465;SDS011;24244;51.950;5.902;2023-04-25T00:42:00;2.97;;;1.00;;
38465;SDS011;24244;51.950;5.902;2023-04-25T00:44:28;2.17;;;1.00;;
38465;SDS011;24244;51.950;5.902;2023-04-25T00:46:55;2.38;;;1.00;;
38465;SDS011;24244;51.950;5.902;2023-04-25T00:49:23;1.85;;;0.75;;
38465;SDS011;24244;51.950;5.902;2023-04-25T00:51:50;2.30;;;0.88;;
38465;SDS011;24244;51.950;5.902;2023-04-25T00:54:17;4.18;;;1.10;;
38465;SDS011;24244;51.950;5.902;2023-04-25T00:56:44;4.15;;;1.13;;
38465;SDS011;24244;51.950;5.902;2023-04-25T00:59:12;4.32;;;1.08;;
38465;SDS011;24244;51.950;5.902;2023-04-25T01:01:39;5.03;;;1.52;;
38465;SDS011;24244;51.950;5.902;2023-04-25T01:04:07;3.63;;;0.93;;
38465;SDS011;24244;51.950;5.902;2023-04-25T01:06:35;3.75;;;1.20;;
38465;SDS011;24244;51.950;5.902;2023-04-25T01:09:01;4.80;;;1.73;;
38465;SDS011;24244;51.950;5.902;2023-04-25T01:11:29;1.73;;;0.88;;
38465;SDS011;24244;51.950;5.902;2023-04-25T01:13:56;5.25;;;1.10;;
38465;SDS011;24244;51.950;5.902;2023-04-25T01:16:24;4.93;;;1.30;;
38465;SDS011;24244;51.950;5.902;2023-04-25T01:18:51;4.32;;;0.90;;
38465;SDS011;24244;51.950;5.902;2023-04-25T01:21:19;2.88;;;0.85;;
38465;SDS011;24244;51.950;5.902;2023-04-25T01:23:46;4.05;;;1.48;;
38465;SDS011;24244;51.950;5.902;2023-04-25T01:26:14;3.72;;;1.17;;
38465;SDS011;24244;51.950;5.902;2023-04-25T01:28:41;3.90;;;1.15;;
38465;SDS011;24244;51.950;5.902;2023-04-25T01:31:09;3.50;;;1.10;;
38465;SDS011;24244;51.950;5.902;2023-04-25T01:33:36;3.90;;;1.10;;
38465;SDS011;24244;51.950;5.902;2023-04-25T01:36:03;6.40;;;1.08;;
38465;SDS011;24244;51.950;5.902;2023-04-25T01:38:32;2.72;;;1.17;;
38465;SDS011;24244;51.950;5.902;2023-04-25T01:41:00;3.50;;;1.20;;
38465;SDS011;24244;51.950;5.902;2023-04-25T01:43:27;3.60;;;1.00;;
38465;SDS011;24244;51.950;5.902;2023-04-25T01:45:54;4.38;;;1.55;;
38465;SDS011;24244;51.950;5.902;2023-04-25T01:48:23;5.15;;;1.40;;
38465;SDS011;24244;51.950;5.902;2023-04-25T01:50:49;2.75;;;1.08;;
38465;SDS011;24244;51.950;5.902;2023-04-25T01:53:17;3.97;;;1.30;;
38465;SDS011;24244;51.950;5.902;2023-04-25T01:55:46;6.00;;;1.63;;
38465;SDS011;24244;51.950;5.902;2023-04-25T01:58:12;3.67;;;1.17;;
38465;SDS011;24244;51.950;5.902;2023-04-25T02:00:39;2.78;;;0.93;;
38465;SDS011;24244;51.950;5.902;2023-04-25T02:03:07;4.68;;;1.23;;
38465;SDS011;24244;51.950;5.902;2023-04-25T02:05:35;3.47;;;1.10;;
38465;SDS011;24244;51.950;5.902;2023-04-25T02:08:03;4.45;;;1.15;;
38465;SDS011;24244;51.950;5.902;2023-04-25T02:10:31;3.42;;;1.23;;
38465;SDS011;24244;51.950;5.902;2023-04-25T02:12:59;5.25;;;1.52;;
38465;SDS011;24244;51.950;5.902;2023-04-25T02:15:26;3.97;;;1.48;;
38465;SDS011;24244;51.950;5.902;2023-04-25T02:17:53;4.72;;;1.40;;
38465;SDS011;24244;51.950;5.902;2023-04-25T02:20:20;7.00;;;1.50;;
38465;SDS011;24244;51.950;5.902;2023-04-25T02:22:47;3.90;;;1.30;;
38465;SDS011;24244;51.950;5.902;2023-04-25T02:25:14;4.63;;;1.20;;
38465;SDS011;24244;51.950;5.902;2023-04-25T02:27:42;5.78;;;1.25;;
38465;SDS011;24244;51.950;5.902;2023-04-25T02:30:11;4.25;;;1.50;;
38465;SDS011;24244;51.950;5.902;2023-04-25T02:32:38;3.35;;;1.27;;
38465;SDS011;24244;51.950;5.902;2023-04-25T02:35:07;3.78;;;1.52;;
38465;SDS011;24244;51.950;5.902;2023-04-25T02:37:35;3.05;;;0.98;;
38465;SDS011;24244;51.950;5.902;2023-04-25T02:40:04;4.82;;;1.30;;
38465;SDS011;24244;51.950;5.902;2023-04-25T02:42:31;2.80;;;1.02;;
38465;SDS011;24244;51.950;5.902;2023-04-25T02:44:58;4.90;;;0.95;;
38465;SDS011;24244;51.950;5.902;2023-04-25T02:47:27;3.67;;;1.42;;
38465;SDS011;24244;51.950;5.902;2023-04-25T02:49:53;6.55;;;1.75;;
38465;SDS011;24244;51.950;5.902;2023-04-25T02:52:20;4.18;;;1.45;;
38465;SDS011;24244;51.950;5.902;2023-04-25T02:54:47;5.45;;;1.02;;
38465;SDS011;24244;51.950;5.902;2023-04-25T02:57:14;4.20;;;1.42;;
38465;SDS011;24244;51.950;5.902;2023-04-25T02:59:41;4.25;;;1.10;;
38465;SDS011;24244;51.950;5.902;2023-04-25T03:02:08;5.82;;;1.65;;
38465;SDS011;24244;51.950;5.902;2023-04-25T03:04:36;3.83;;;1.30;;
38465;SDS011;24244;51.950;5.902;2023-04-25T03:07:03;4.28;;;1.50;;
38465;SDS011;24244;51.950;5.902;2023-04-25T03:09:30;6.85;;;1.40;;
38465;SDS011;24244;51.950;5.902;2023-04-25T03:11:56;3.45;;;1.08;;
38465;SDS011;24244;51.950;5.902;2023-04-25T03:14:23;3.72;;;1.23;;
38465;SDS011;24244;51.950;5.902;2023-04-25T03:19:26;8.70;;;1.77;;
38465;SDS011;24244;51.950;5.902;2023-04-25T03:21:54;3.80;;;1.55;;
38465;SDS011;24244;51.950;5.902;2023-04-25T03:24:21;3.92;;;1.27;;
38465;SDS011;24244;51.950;5.902;2023-04-25T03:26:48;7.05;;;1.77;;
38465;SDS011;24244;51.950;5.902;2023-04-25T03:29:14;4.38;;;1.23;;
38465;SDS011;24244;51.950;5.902;2023-04-25T03:31:41;4.40;;;0.95;;
38465;SDS011;24244;51.950;5.902;2023-04-25T03:34:08;5.60;;;1.50;;
38465;SDS011;24244;51.950;5.902;2023-04-25T03:36:35;4.07;;;1.95;;
38465;SDS011;24244;51.950;5.902;2023-04-25T03:39:03;4.30;;;1.45;;
38465;SDS011;24244;51.950;5.902;2023-04-25T03:41:29;5.45;;;1.58;;
38465;SDS011;24244;51.950;5.902;2023-04-25T03:43:57;3.17;;;1.33;;
38465;SDS011;24244;51.950;5.902;2023-04-25T03:46:23;1.92;;;1.00;;
38465;SDS011;24244;51.950;5.902;2023-04-25T03:48:51;3.72;;;1.42;;
38465;SDS011;24244;51.950;5.902;2023-04-25T03:51:17;8.77;;;1.30;;
38465;SDS011;24244;51.950;5.902;2023-04-25T03:53:44;5.68;;;1.38;;
38465;SDS011;24244;51.950;5.902;2023-04-25T03:56:12;2.90;;;1.10;;
38465;SDS011;24244;51.950;5.902;2023-04-25T03:58:39;3.72;;;1.45;;
38465;SDS011;24244;51.950;5.902;2023-04-25T04:01:06;5.13;;;1.50;;
38465;SDS011;24244;51.950;5.902;2023-04-25T04:03:34;4.70;;;1.55;;
38465;SDS011;24244;51.950;5.902;2023-04-25T04:06:02;4.88;;;1.48;;
38465;SDS011;24244;51.950;5.902;2023-04-25T04:08:30;3.90;;;1.55;;
38465;SDS011;24244;51.950;5.902;2023-04-25T04:10:57;4.22;;;1.67;;
38465;SDS011;24244;51.950;5.902;2023-04-25T04:13:26;4.75;;;1.50;;
38465;SDS011;24244;51.950;5.902;2023-04-25T04:15:53;4.60;;;1.42;;
38465;SDS011;24244;51.950;5.902;2023-04-25T04:18:21;5.55;;;1.65;;
38465;SDS011;24244;51.950;5.902;2023-04-25T04:20:48;4.97;;;1.45;;
38465;SDS011;24244;51.950;5.902;2023-04-25T04:23:16;5.53;;;1.35;;
38465;SDS011;24244;51.950;5.902;2023-04-25T04:25:42;4.28;;;1.85;;
38465;SDS011;24244;51.950;5.902;2023-04-25T04:28:09;5.40;;;1.40;;
38465;SDS011;24244;51.950;5.902;2023-04-25T04:30:38;3.20;;;1.63;;
38465;SDS011;24244;51.950;5.902;2023-04-25T04:33:05;3.30;;;1.30;;
38465;SDS011;24244;51.950;5.902;2023-04-25T04:35:33;5.20;;;1.77;;
38465;SDS011;24244;51.950;5.902;2023-04-25T04:38:00;3.33;;;1.10;;
38465;SDS011;24244;51.950;5.902;2023-04-25T04:40:27;6.80;;;1.58;;
38465;SDS011;24244;51.950;5.902;2023-04-25T04:42:54;3.38;;;1.42;;
38465;SDS011;24244;51.950;5.902;2023-04-25T04:45:22;4.70;;;1.40;;
38465;SDS011;24244;51.950;5.902;2023-04-25T04:47:51;3.85;;;1.65;;
38465;SDS011;24244;51.950;5.902;2023-04-25T04:50:18;4.65;;;1.55;;
38465;SDS011;24244;51.950;5.902;2023-04-25T04:52:45;4.38;;;1.52;;
38465;SDS011;24244;51.950;5.902;2023-04-25T04:55:12;4.50;;;1.77;;
38465;SDS011;24244;51.950;5.902;2023-04-25T04:57:41;7.45;;;2.13;;
38465;SDS011;24244;51.950;5.902;2023-04-25T05:00:09;3.80;;;1.33;;
38465;SDS011;24244;51.950;5.902;2023-04-25T05:02:37;3.28;;;1.60;;
38465;SDS011;24244;51.950;5.902;2023-04-25T05:05:06;5.05;;;1.55;;
38465;SDS011;24244;51.950;5.902;2023-04-25T05:07:34;3.33;;;1.38;;
38465;SDS011;24244;51.950;5.902;2023-04-25T05:10:01;3.17;;;1.45;;
38465;SDS011;24244;51.950;5.902;2023-04-25T05:12:27;3.83;;;1.55;;
38465;SDS011;24244;51.950;5.902;2023-04-25T05:14:54;7.47;;;1.70;;
38465;SDS011;24244;51.950;5.902;2023-04-25T05:17:21;4.15;;;1.42;;
38465;SDS011;24244;51.950;5.902;2023-04-25T05:19:48;4.20;;;1.25;;
38465;SDS011;24244;51.950;5.902;2023-04-25T05:22:16;7.20;;;1.50;;
38465;SDS011;24244;51.950;5.902;2023-04-25T05:24:42;4.65;;;1.55;;
38465;SDS011;24244;51.950;5.902;2023-04-25T05:27:09;6.15;;;1.73;;
38465;SDS011;24244;51.950;5.902;2023-04-25T05:29:36;3.33;;;1.55;;
38465;SDS011;24244;51.950;5.902;2023-04-25T05:32:02;3.60;;;1.20;;
38465;SDS011;24244;51.950;5.902;2023-04-25T05:34:29;5.40;;;1.80;;
38465;SDS011;24244;51.950;5.902;2023-04-25T05:36:56;5.03;;;1.23;;
38465;SDS011;24244;51.950;5.902;2023-04-25T05:39:24;5.18;;;1.52;;
38465;SDS011;24244;51.950;5.902;2023-04-25T05:41:51;3.42;;;1.45;;
38465;SDS011;24244;51.950;5.902;2023-04-25T05:44:20;5.45;;;1.83;;
38465;SDS011;24244;51.950;5.902;2023-04-25T05:46:47;3.97;;;1.50;;
38465;SDS011;24244;51.950;5.902;2023-04-25T05:49:14;5.13;;;1.52;;
38465;SDS011;24244;51.950;5.902;2023-04-25T05:51:44;5.38;;;1.77;;
38465;SDS011;24244;51.950;5.902;2023-04-25T05:54:11;4.50;;;1.52;;
38465;SDS011;24244;51.950;5.902;2023-04-25T05:56:39;5.00;;;1.77;;
38465;SDS011;24244;51.950;5.902;2023-04-25T05:59:06;5.63;;;1.63;;
38465;SDS011;24244;51.950;5.902;2023-04-25T06:01:33;4.63;;;1.65;;
38465;SDS011;24244;51.950;5.902;2023-04-25T06:03:59;4.07;;;1.40;;
38465;SDS011;24244;51.950;5.902;2023-04-25T06:06:26;5.40;;;1.55;;
38465;SDS011;24244;51.950;5.902;2023-04-25T06:08:53;5.78;;;2.05;;
38465;SDS011;24244;51.950;5.902;2023-04-25T06:11:21;4.05;;;1.30;;
38465;SDS011;24244;51.950;5.902;2023-04-25T06:13:49;2.28;;;1.30;;
38465;SDS011;24244;51.950;5.902;2023-04-25T06:16:16;6.97;;;2.00;;
38465;SDS011;24244;51.950;5.902;2023-04-25T06:18:43;4.63;;;1.40;;
38465;SDS011;24244;51.950;5.902;2023-04-25T06:21:10;5.47;;;1.35;;
38465;SDS011;24244;51.950;5.902;2023-04-25T06:23:37;3.90;;;1.17;;
38465;SDS011;24244;51.950;5.902;2023-04-25T06:26:04;3.65;;;1.40;;
38465;SDS011;24244;51.950;5.902;2023-04-25T06:28:30;4.80;;;1.50;;
38465;SDS011;24244;51.950;5.902;2023-04-25T06:30:59;2.72;;;1.10;;
38465;SDS011;24244;51.950;5.902;2023-04-25T06:33:25;4.50;;;1.45;;
38465;SDS011;24244;51.950;5.902;2023-04-25T06:35:52;6.10;;;1.25;;
38465;SDS011;24244;51.950;5.902;2023-04-25T06:38:19;4.10;;;1.13;;
38465;SDS011;24244;51.950;5.902;2023-04-25T06:40:46;2.40;;;1.15;;
38465;SDS011;24244;51.950;5.902;2023-04-25T06:43:13;4.47;;;1.45;;
38465;SDS011;24244;51.950;5.902;2023-04-25T06:45:40;6.68;;;1.25;;
38465;SDS011;24244;51.950;5.902;2023-04-25T06:48:11;4.72;;;1.25;;
38465;SDS011;24244;51.950;5.902;2023-04-25T06:50:37;4.18;;;1.00;;
38465;SDS011;24244;51.950;5.902;2023-04-25T06:53:04;4.65;;;1.10;;
38465;SDS011;24244;51.950;5.902;2023-04-25T06:55:31;4.20;;;1.02;;
38465;SDS011;24244;51.950;5.902;2023-04-25T06:57:57;3.35;;;1.23;;
38465;SDS011;24244;51.950;5.902;2023-04-25T07:00:24;5.75;;;1.58;;
38465;SDS011;24244;51.950;5.902;2023-04-25T07:02:51;9.90;;;1.50;;
38465;SDS011;24244;51.950;5.902;2023-04-25T07:05:19;3.88;;;1.33;;
38465;SDS011;24244;51.950;5.902;2023-04-25T07:07:47;3.35;;;1.02;;
38465;SDS011;24244;51.950;5.902;2023-04-25T07:10:13;3.92;;;1.30;;
38465;SDS011;24244;51.950;5.902;2023-04-25T07:12:40;4.55;;;1.20;;
38465;SDS011;24244;51.950;5.902;2023-04-25T07:15:07;3.88;;;1.42;;
38465;SDS011;24244;51.950;5.902;2023-04-25T07:17:36;3.55;;;1.73;;
38465;SDS011;24244;51.950;5.902;2023-04-25T07:20:03;3.00;;;1.05;;
38465;SDS011;24244;51.950;5.902;2023-04-25T07:22:32;3.08;;;1.15;;
38465;SDS011;24244;51.950;5.902;2023-04-25T07:24:58;3.53;;;1.13;;
38465;SDS011;24244;51.950;5.902;2023-04-25T07:27:25;3.15;;;1.05;;
38465;SDS011;24244;51.950;5.902;2023-04-25T07:29:52;4.68;;;1.20;;
38465;SDS011;24244;51.950;5.902;2023-04-25T07:32:19;4.22;;;1.25;;
38465;SDS011;24244;51.950;5.902;2023-04-25T07:34:46;3.70;;;1.20;;
38465;SDS011;24244;51.950;5.902;2023-04-25T07:37:13;3.63;;;1.15;;
38465;SDS011;24244;51.950;5.902;2023-04-25T07:39:41;2.45;;;0.80;;
38465;SDS011;24244;51.950;5.902;2023-04-25T07:42:09;4.90;;;1.20;;
38465;SDS011;24244;51.950;5.902;2023-04-25T07:44:36;5.65;;;1.08;;
38465;SDS011;24244;51.950;5.902;2023-04-25T07:47:05;4.70;;;1.02;;
38465;SDS011;24244;51.950;5.902;2023-04-25T07:49:33;5.20;;;0.80;;
38465;SDS011;24244;51.950;5.902;2023-04-25T07:52:01;3.80;;;1.15;;
38465;SDS011;24244;51.950;5.902;2023-04-25T07:54:28;2.63;;;0.98;;
38465;SDS011;24244;51.950;5.902;2023-04-25T07:56:56;3.67;;;0.77;;
38465;SDS011;24244;51.950;5.902;2023-04-25T07:59:23;5.60;;;0.98;;
38465;SDS011;24244;51.950;5.902;2023-04-25T08:01:50;2.08;;;0.70;;
38465;SDS011;24244;51.950;5.902;2023-04-25T08:04:17;5.30;;;1.13;;
38465;SDS011;24244;51.950;5.902;2023-04-25T08:06:44;4.18;;;0.95;;
38465;SDS011;24244;51.950;5.902;2023-04-25T08:09:11;4.97;;;1.00;;
38465;SDS011;24244;51.950;5.902;2023-04-25T08:11:39;4.68;;;1.00;;
38465;SDS011;24244;51.950;5.902;2023-04-25T08:14:09;3.58;;;0.77;;
38465;SDS011;24244;51.950;5.902;2023-04-25T08:16:36;3.25;;;0.73;;
38465;SDS011;24244;51.950;5.902;2023-04-25T08:19:03;2.42;;;0.52;;
38465;SDS011;24244;51.950;5.902;2023-04-25T08:21:31;5.10;;;1.10;;
38465;SDS011;24244;51.950;5.902;2023-04-25T08:23:58;3.35;;;0.70;;
38465;SDS011;24244;51.950;5.902;2023-04-25T08:26:25;3.00;;;0.70;;
38465;SDS011;24244;51.950;5.902;2023-04-25T08:28:51;2.88;;;0.50;;
38465;SDS011;24244;51.950;5.902;2023-04-25T08:31:20;2.60;;;0.70;;
38465;SDS011;24244;51.950;5.902;2023-04-25T08:33:47;2.15;;;0.45;;
38465;SDS011;24244;51.950;5.902;2023-04-25T08:36:14;2.65;;;0.50;;
38465;SDS011;24244;51.950;5.902;2023-04-25T08:38:57;3.30;;;0.70;;
38465;SDS011;24244;51.950;5.902;2023-04-25T08:41:28;2.40;;;0.50;;
38465;SDS011;24244;51.950;5.902;2023-04-25T08:43:58;3.03;;;0.65;;
38465;SDS011;24244;51.950;5.902;2023-04-25T08:46:28;2.67;;;0.80;;
38465;SDS011;24244;51.950;5.902;2023-04-25T08:48:59;5.75;;;1.15;;
38465;SDS011;24244;51.950;5.902;2023-04-25T08:54:00;3.78;;;0.40;;
38465;SDS011;24244;51.950;5.902;2023-04-25T08:56:56;1.83;;;0.60;;
38465;SDS011;24244;51.950;5.902;2023-04-25T08:59:28;4.85;;;0.73;;
38465;SDS011;24244;51.950;5.902;2023-04-25T09:01:57;5.25;;;1.17;;
38465;SDS011;24244;51.950;5.902;2023-04-25T09:04:27;2.45;;;0.90;;
38465;SDS011;24244;51.950;5.902;2023-04-25T09:06:56;2.45;;;0.60;;
38465;SDS011;24244;51.950;5.902;2023-04-25T09:09:24;2.25;;;0.63;;
38465;SDS011;24244;51.950;5.902;2023-04-25T09:11:51;2.88;;;0.60;;
38465;SDS011;24244;51.950;5.902;2023-04-25T09:14:22;5.07;;;0.82;;
38465;SDS011;24244;51.950;5.902;2023-04-25T09:17:00;4.00;;;0.52;;
38465;SDS011;24244;51.950;5.902;2023-04-25T09:19:30;3.50;;;0.55;;
38465;SDS011;24244;51.950;5.902;2023-04-25T09:22:07;1.75;;;0.47;;
38465;SDS011;24244;51.950;5.902;2023-04-25T09:24:35;1.88;;;0.60;;
38465;SDS011;24244;51.950;5.902;2023-04-25T09:27:03;4.07;;;0.77;;
38465;SDS011;24244;51.950;5.902;2023-04-25T09:29:32;4.30;;;0.68;;
38465;SDS011;24244;51.950;5.902;2023-04-25T09:32:17;3.35;;;0.52;;
38465;SDS011;24244;51.950;5.902;2023-04-25T09:34:50;3.10;;;0.38;;
38465;SDS011;24244;51.950;5.902;2023-04-25T09:37:18;3.08;;;0.40;;
38465;SDS011;24244;51.950;5.902;2023-04-25T09:39:47;1.55;;;0.43;;
38465;SDS011;24244;51.950;5.902;2023-04-25T09:42:15;2.63;;;0.70;;
38465;SDS011;24244;51.950;5.902;2023-04-25T09:44:43;1.38;;;0.32;;
38465;SDS011;24244;51.950;5.902;2023-04-25T09:47:11;2.40;;;0.70;;
38465;SDS011;24244;51.950;5.902;2023-04-25T09:49:41;2.47;;;0.38;;
38465;SDS011;24244;51.950;5.902;2023-04-25T09:52:09;3.28;;;0.63;;
38465;SDS011;24244;51.950;5.902;2023-04-25T09:54:41;1.95;;;0.32;;
38465;SDS011;24244;51.950;5.902;2023-04-25T09:57:12;4.07;;;0.50;;
38465;SDS011;24244;51.950;5.902;2023-04-25T09:59:42;2.67;;;0.40;;
38465;SDS011;24244;51.950;5.902;2023-04-25T10:02:11;2.10;;;0.50;;
38465;SDS011;24244;51.950;5.902;2023-04-25T10:04:38;2.38;;;0.43;;
38465;SDS011;24244;51.950;5.902;2023-04-25T10:07:07;4.78;;;0.90;;
38465;SDS011;24244;51.950;5.902;2023-04-25T10:09:37;3.78;;;0.90;;
38465;SDS011;24244;51.950;5.902;2023-04-25T10:12:06;3.40;;;0.73;;
38465;SDS011;24244;51.950;5.902;2023-04-25T10:14:33;2.30;;;0.40;;
38465;SDS011;24244;51.950;5.902;2023-04-25T10:17:02;1.15;;;0.20;;
38465;SDS011;24244;51.950;5.902;2023-04-25T10:19:29;2.72;;;0.50;;
38465;SDS011;24244;51.950;5.902;2023-04-25T10:21:58;4.00;;;0.40;;
38465;SDS011;24244;51.950;5.902;2023-04-25T10:24:32;4.35;;;0.57;;
38465;SDS011;24244;51.950;5.902;2023-04-25T10:27:01;2.50;;;0.40;;
38465;SDS011;24244;51.950;5.902;2023-04-25T10:29:29;1.85;;;0.40;;
38465;SDS011;24244;51.950;5.902;2023-04-25T10:31:55;3.72;;;0.93;;
38465;SDS011;24244;51.950;5.902;2023-04-25T10:34:24;4.32;;;0.50;;
38465;SDS011;24244;51.950;5.902;2023-04-25T10:37:05;1.85;;;0.40;;
38465;SDS011;24244;51.950;5.902;2023-04-25T10:39:37;1.40;;;0.30;;
38465;SDS011;24244;51.950;5.902;2023-04-25T10:42:07;1.98;;;0.40;;
38465;SDS011;24244;51.950;5.902;2023-04-25T10:44:37;2.15;;;0.28;;
38465;SDS011;24244;51.950;5.902;2023-04-25T10:47:06;3.45;;;0.70;;
38465;SDS011;24244;51.950;5.902;2023-04-25T10:49:35;5.25;;;0.60;;
38465;SDS011;24244;51.950;5.902;2023-04-25T10:52:13;3.45;;;0.57;;
38465;SDS011;24244;51.950;5.902;2023-04-25T10:54:51;2.90;;;0.47;;
38465;SDS011;24244;51.950;5.902;2023-04-25T10:57:31;3.13;;;0.55;;
38465;SDS011;24244;51.950;5.902;2023-04-25T11:00:05;3.13;;;0.50;;
38465;SDS011;24244;51.950;5.902;2023-04-25T11:02:37;2.60;;;0.50;;
38465;SDS011;24244;51.950;5.902;2023-04-25T11:05:07;5.15;;;1.27;;
38465;SDS011;24244;51.950;5.902;2023-04-25T11:07:37;1.15;;;0.40;;
38465;SDS011;24244;51.950;5.902;2023-04-25T11:10:17;2.25;;;0.50;;
38465;SDS011;24244;51.950;5.902;2023-04-25T11:12:44;1.20;;;0.38;;
38465;SDS011;24244;51.950;5.902;2023-04-25T11:15:13;2.70;;;0.50;;
38465;SDS011;24244;51.950;5.902;2023-04-25T11:17:40;2.58;;;0.20;;
38465;SDS011;24244;51.950;5.902;2023-04-25T11:20:07;2.33;;;0.50;;
38465;SDS011;24244;51.950;5.902;2023-04-25T11:22:38;1.58;;;0.73;;
38465;SDS011;24244;51.950;5.902;2023-04-25T11:25:09;1.63;;;0.30;;
38465;SDS011;24244;51.950;5.902;2023-04-25T11:27:39;3.40;;;0.68;;
38465;SDS011;24244;51.950;5.902;2023-04-25T11:30:16;2.83;;;0.43;;
38465;SDS011;24244;51.950;5.902;2023-04-25T11:32:44;1.98;;;0.30;;
38465;SDS011;24244;51.950;5.902;2023-04-25T11:35:11;0.52;;;0.20;;
38465;SDS011;24244;51.950;5.902;2023-04-25T11:37:39;2.35;;;0.40;;
38465;SDS011;24244;51.950;5.902;2023-04-25T11:40:07;1.75;;;0.30;;
38465;SDS011;24244;51.950;5.902;2023-04-25T11:42:36;1.58;;;0.40;;
38465;SDS011;24244;51.950;5.902;2023-04-25T11:45:06;1.52;;;0.20;;
38465;SDS011;24244;51.950;5.902;2023-04-25T11:47:34;0.88;;;0.25;;
38465;SDS011;24244;51.950;5.902;2023-04-25T11:50:01;1.10;;;0.25;;
38465;SDS011;24244;51.950;5.902;2023-04-25T11:52:37;1.92;;;0.90;;
38465;SDS011;24244;51.950;5.902;2023-04-25T11:55:09;1.88;;;0.47;;
38465;SDS011;24244;51.950;5.902;2023-04-25T11:57:38;2.38;;;0.30;;
38465;SDS011;24244;51.950;5.902;2023-04-25T12:00:10;2.20;;;0.40;;
38465;SDS011;24244;51.950;5.902;2023-04-25T12:02:42;1.67;;;0.30;;
38465;SDS011;24244;51.950;5.902;2023-04-25T12:05:11;2.42;;;0.55;;
38465;SDS011;24244;51.950;5.902;2023-04-25T12:07:57;1.85;;;0.35;;
38465;SDS011;24244;51.950;5.902;2023-04-25T12:10:24;1.45;;;0.20;;
38465;SDS011;24244;51.950;5.902;2023-04-25T12:12:52;1.73;;;0.40;;
38465;SDS011;24244;51.950;5.902;2023-04-25T12:15:24;1.45;;;0.25;;
38465;SDS011;24244;51.950;5.902;2023-04-25T12:17:55;3.38;;;0.32;;
38465;SDS011;24244;51.950;5.902;2023-04-25T12:20:23;1.40;;;0.50;;
38465;SDS011;24244;51.950;5.902;2023-04-25T12:22:56;1.90;;;0.50;;
38465;SDS011;24244;51.950;5.902;2023-04-25T12:25:37;2.17;;;0.40;;
38465;SDS011;24244;51.950;5.902;2023-04-25T12:28:12;1.33;;;0.35;;
38465;SDS011;24244;51.950;5.902;2023-04-25T12:30:55;2.20;;;0.38;;
38465;SDS011;24244;51.950;5.902;2023-04-25T12:33:24;2.50;;;0.40;;
38465;SDS011;24244;51.950;5.902;2023-04-25T12:35:52;2.47;;;0.50;;
38465;SDS011;24244;51.950;5.902;2023-04-25T12:38:25;1.33;;;0.25;;
38465;SDS011;24244;51.950;5.902;2023-04-25T12:40:53;1.65;;;0.40;;
38465;SDS011;24244;51.950;5.902;2023-04-25T12:43:21;2.05;;;0.43;;
38465;SDS011;24244;51.950;5.902;2023-04-25T12:45:48;3.08;;;0.63;;
38465;SDS011;24244;51.950;5.902;2023-04-25T12:48:18;1.33;;;0.30;;
38465;SDS011;24244;51.950;5.902;2023-04-25T12:50:45;3.35;;;0.50;;
38465;SDS011;24244;51.950;5.902;2023-04-25T12:53:15;1.60;;;0.32;;
38465;SDS011;24244;51.950;5.902;2023-04-25T12:55:43;1.23;;;0.20;;
38465;SDS011;24244;51.950;5.902;2023-04-25T12:58:12;2.05;;;0.30;;
38465;SDS011;24244;51.950;5.902;2023-04-25T13:00:40;2.15;;;0.40;;
38465;SDS011;24244;51.950;5.902;2023-04-25T13:03:07;1.77;;;0.50;;
38465;SDS011;24244;51.950;5.902;2023-04-25T13:05:36;4.57;;;0.50;;
38465;SDS011;24244;51.950;5.902;2023-04-25T13:08:04;3.67;;;0.45;;
38465;SDS011;24244;51.950;5.902;2023-04-25T13:10:31;3.80;;;0.57;;
38465;SDS011;24244;51.950;5.902;2023-04-25T13:13:00;2.03;;;0.40;;
38465;SDS011;24244;51.950;5.902;2023-04-25T13:15:27;2.55;;;0.40;;
38465;SDS011;24244;51.950;5.902;2023-04-25T13:17:54;2.40;;;0.40;;
38465;SDS011;24244;51.950;5.902;2023-04-25T13:20:23;2.40;;;0.38;;
38465;SDS011;24244;51.950;5.902;2023-04-25T13:22:58;1.55;;;0.30;;
38465;SDS011;24244;51.950;5.902;2023-04-25T13:25:27;2.30;;;0.32;;
38465;SDS011;24244;51.950;5.902;2023-04-25T13:27:54;2.20;;;0.30;;
38465;SDS011;24244;51.950;5.902;2023-04-25T13:30:20;2.13;;;0.35;;
38465;SDS011;24244;51.950;5.902;2023-04-25T13:32:47;2.42;;;0.40;;
38465;SDS011;24244;51.950;5.902;2023-04-25T13:35:14;3.13;;;0.75;;
38465;SDS011;24244;51.950;5.902;2023-04-25T13:37:41;1.67;;;0.40;;
38465;SDS011;24244;51.950;5.902;2023-04-25T13:40:10;0.90;;;0.30;;
38465;SDS011;24244;51.950;5.902;2023-04-25T13:42:38;1.45;;;0.30;;
38465;SDS011;24244;51.950;5.902;2023-04-25T13:45:06;1.35;;;0.40;;
38465;SDS011;24244;51.950;5.902;2023-04-25T13:47:34;2.60;;;0.40;;
38465;SDS011;24244;51.950;5.902;2023-04-25T13:50:02;1.45;;;0.30;;
38465;SDS011;24244;51.950;5.902;2023-04-25T13:52:30;1.83;;;0.30;;
38465;SDS011;24244;51.950;5.902;2023-04-25T13:54:57;1.38;;;0.65;;
38465;SDS011;24244;51.950;5.902;2023-04-25T13:57:25;1.80;;;0.35;;
38465;SDS011;24244;51.950;5.902;2023-04-25T13:59:52;1.27;;;0.50;;
38465;SDS011;24244;51.950;5.902;2023-04-25T14:02:20;3.50;;;0.55;;
38465;SDS011;24244;51.950;5.902;2023-04-25T14:04:46;3.17;;;0.43;;
38465;SDS011;24244;51.950;5.902;2023-04-25T14:07:13;1.00;;;0.22;;
38465;SDS011;24244;51.950;5.902;2023-04-25T14:09:44;1.55;;;0.20;;
38465;SDS011;24244;51.950;5.902;2023-04-25T14:12:11;1.60;;;0.20;;
38465;SDS011;24244;51.950;5.902;2023-04-25T14:14:39;1.17;;;0.20;;
38465;SDS011;24244;51.950;5.902;2023-04-25T14:17:06;2.20;;;0.40;;
38465;SDS011;24244;51.950;5.902;2023-04-25T14:19:33;1.13;;;0.25;;
38465;SDS011;24244;51.950;5.902;2023-04-25T14:22:00;3.80;;;0.45;;
38465;SDS011;24244;51.950;5.902;2023-04-25T14:24:27;2.22;;;0.32;;
38465;SDS011;24244;51.950;5.902;2023-04-25T14:26:54;3.75;;;0.73;;
38465;SDS011;24244;51.950;5.902;2023-04-25T14:29:21;1.80;;;0.57;;
38465;SDS011;24244;51.950;5.902;2023-04-25T14:31:49;1.75;;;0.30;;
38465;SDS011;24244;51.950;5.902;2023-04-25T14:34:16;2.08;;;0.57;;
38465;SDS011;24244;51.950;5.902;2023-04-25T14:36:43;2.13;;;0.43;;
38465;SDS011;24244;51.950;5.902;2023-04-25T14:39:10;3.53;;;0.40;;
38465;SDS011;24244;51.950;5.902;2023-04-25T14:41:38;2.50;;;0.40;;
38465;SDS011;24244;51.950;5.902;2023-04-25T14:44:06;3.97;;;0.60;;
38465;SDS011;24244;51.950;5.902;2023-04-25T14:46:34;1.98;;;0.55;;
38465;SDS011;24244;51.950;5.902;2023-04-25T14:49:03;3.33;;;0.65;;
38465;SDS011;24244;51.950;5.902;2023-04-25T14:51:31;3.20;;;0.32;;
38465;SDS011;24244;51.950;5.902;2023-04-25T14:53:58;5.10;;;0.40;;
38465;SDS011;24244;51.950;5.902;2023-04-25T14:56:24;2.30;;;0.75;;
38465;SDS011;24244;51.950;5.902;2023-04-25T14:58:51;2.47;;;0.30;;